Time;durP1;ratioP1;P1;durP2;ratioP2;P2;SDS_P1;SDS_P2;PMS_P1;PMS_P2;Temp;Humidity;BMP_temperature;BMP_pressure;BME280_temperature;BME280_humidity;BME280_pressure;Samples;Min_cycle;Max_cycle;Signal;HPM_P1;HPM_P2
2022/03/11 00:00:05;;;;;;;6.50;3.40;;;;;;;-7.04;59.95;102476.69;107218;1249;73226;-73
2022/03/11 00:03:04;;;;;;;10.00;5.20;;;;;;;-7.06;59.96;102479.02;107232;1249;70428;-69
2022/03/11 00:05:33;;;;;;;9.10;4.90;;;;;;;-7.08;60.01;102477.42;107153;1249;74246;-70
2022/03/11 00:08:03;;;;;;;9.80;5.10;;;;;;;-7.09;60.05;102477.74;107068;1250;63660;-69
2022/03/11 00:10:33;;;;;;;9.20;5.10;;;;;;;-7.12;60.28;102475.10;107147;1249;60685;-72
2022/03/11 00:13:01;;;;;;;11.90;5.80;;;;;;;-7.14;59.87;102472.69;107226;1249;74683;-71
2022/03/11 00:15:30;;;;;;;9.10;4.30;;;;;;;-7.18;60.03;102472.91;107228;1249;72758;-71
2022/03/11 00:18:00;;;;;;;8.40;4.00;;;;;;;-7.20;59.90;102470.33;107040;1250;70881;-70
2022/03/11 00:20:29;;;;;;;10.70;5.20;;;;;;;-7.22;59.97;102471.78;107054;1250;74045;-69
2022/03/11 00:22:59;;;;;;;9.40;4.50;;;;;;;-7.23;59.89;102467.86;107232;1249;61848;-71
2022/03/11 00:25:30;;;;;;;10.30;5.40;;;;;;;-7.25;59.86;102469.69;107111;1249;59395;-69
2022/03/11 00:28:00;;;;;;;10.40;5.90;;;;;;;-7.27;59.89;102470.98;107199;1249;70977;-71
2022/03/11 00:30:30;;;;;;;9.30;5.20;;;;;;;-7.26;59.93;102469.45;107198;1249;70624;-72
2022/03/11 00:32:58;;;;;;;8.80;5.00;;;;;;;-7.26;59.67;102472.69;107235;1249;70315;-71
2022/03/11 00:35:27;;;;;;;10.70;5.40;;;;;;;-7.28;59.80;102465.86;107258;1249;73047;-73
2022/03/11 00:37:56;;;;;;;11.30;5.80;;;;;;;-7.29;59.62;102465.33;107310;1250;61102;-70
2022/03/11 00:40:26;;;;;;;9.00;4.40;;;;;;;-7.28;59.64;102469.40;107233;1249;59747;-71
2022/03/11 00:42:55;;;;;;;9.10;4.60;;;;;;;-7.26;59.48;102463.88;107389;1249;71730;-72
2022/03/11 00:45:24;;;;;;;9.90;5.30;;;;;;;-7.26;59.56;102468.78;107317;1249;70378;-72
2022/03/11 00:47:53;;;;;;;8.80;4.60;;;;;;;-7.28;59.41;102466.03;107299;1249;68709;-71
2022/03/11 00:50:22;;;;;;;10.30;4.50;;;;;;;-7.28;59.40;102462.80;107142;1251;73205;-70
2022/03/11 00:52:53;;;;;;;9.00;4.10;;;;;;;-7.31;59.35;102458.14;107341;1249;59916;-70
2022/03/11 00:55:22;;;;;;;8.80;4.40;;;;;;;-7.28;59.28;102460.77;107340;1250;61724;-70
2022/03/11 00:57:53;;;;;;;11.90;4.70;;;;;;;-7.29;59.22;102459.90;107198;1250;73582;-70
2022/03/11 01:00:22;;;;;;;8.30;4.50;;;;;;;-7.29;59.40;102460.92;107214;1249;73062;-70
2022/03/11 01:02:53;;;;;;;10.50;5.20;;;;;;;-7.30;59.51;102459.55;107260;1249;68651;-70
2022/03/11 01:05:22;;;;;;;11.10;3.90;;;;;;;-7.32;59.37;102463.36;107053;1250;72546;-71
2022/03/11 01:07:52;;;;;;;9.90;4.50;;;;;;;-7.36;59.56;102465.11;107046;1251;60949;-70
2022/03/11 01:10:21;;;;;;;7.10;4.60;;;;;;;-7.36;59.55;102464.10;107184;1249;61628;-71
2022/03/11 01:12:51;;;;;;;12.10;5.90;;;;;;;-7.37;59.23;102465.73;107247;1250;73197;-72
2022/03/11 01:15:20;;;;;;;14.70;6.60;;;;;;;-7.37;59.55;102465.40;107290;1249;72127;-70
2022/03/11 01:17:49;;;;;;;8.50;4.60;;;;;;;-7.38;59.58;102474.00;107212;1250;70878;-71
2022/03/11 01:20:18;;;;;;;10.10;5.10;;;;;;;-7.41;59.42;102469.87;107254;1249;72151;-72
2022/03/11 01:22:47;;;;;;;8.50;5.10;;;;;;;-7.40;59.40;102469.89;107370;1249;59832;-70
2022/03/11 01:25:19;;;;;;;8.70;4.60;;;;;;;-7.43;59.45;102473.04;107324;1249;59155;-72
2022/03/11 01:27:48;;;;;;;10.90;4.90;;;;;;;-7.41;59.30;102469.38;107106;1249;70947;-72
2022/03/11 01:30:17;;;;;;;8.40;4.70;;;;;;;-7.43;59.15;102464.92;107149;1249;69647;-73
2022/03/11 01:32:46;;;;;;;9.90;4.80;;;;;;;-7.44;59.21;102470.10;107091;1249;69042;-72
2022/03/11 01:35:16;;;;;;;9.50;5.10;;;;;;;-7.46;59.36;102469.05;107138;1250;72353;-70
2022/03/11 01:37:45;;;;;;;11.50;4.90;;;;;;;-7.47;59.33;102474.42;107127;1249;61525;-69
2022/03/11 01:40:14;;;;;;;8.50;4.80;;;;;;;-7.49;59.12;102472.84;107469;1248;60494;-69
2022/03/11 01:42:43;;;;;;;10.80;4.60;;;;;;;-7.53;59.33;102469.01;107408;1249;70978;-69
2022/03/11 01:45:12;;;;;;;7.60;3.80;;;;;;;-7.54;59.29;102473.89;107409;1249;70622;-72
2022/03/11 01:47:43;;;;;;;9.40;4.90;;;;;;;-7.56;59.22;102472.32;107189;1249;69916;-69
2022/03/11 01:50:13;;;;;;;9.40;4.60;;;;;;;-7.56;59.19;102476.89;107289;1249;74444;-69
2022/03/11 01:52:42;;;;;;;8.80;4.50;;;;;;;-7.56;59.26;102479.75;107235;1249;63175;-70
2022/03/11 01:55:11;;;;;;;7.40;4.00;;;;;;;-7.55;59.06;102479.11;107260;1249;62976;-70
2022/03/11 01:57:40;;;;;;;10.20;4.60;;;;;;;-7.54;59.03;102480.86;107197;1248;71336;-69
2022/03/11 02:00:11;;;;;;;9.10;4.40;;;;;;;-7.53;58.96;102479.35;107286;1250;72310;-71
2022/03/11 02:02:39;;;;;;;7.30;4.40;;;;;;;-7.51;59.02;102483.27;107390;1248;69936;-71
2022/03/11 02:05:09;;;;;;;7.80;4.10;;;;;;;-7.52;58.97;102478.86;107589;1247;73675;-69
2022/03/11 02:07:39;;;;;;;9.20;4.80;;;;;;;-7.50;58.91;102480.95;108153;1247;63299;-70
2022/03/11 02:10:09;;;;;;;8.00;3.90;;;;;;;-7.49;58.50;102482.69;107402;1247;59369;-69
2022/03/11 02:12:38;;;;;;;9.60;3.80;;;;;;;-7.48;58.66;102480.85;107323;1249;74148;-70
2022/03/11 02:15:09;;;;;;;6.40;3.30;;;;;;;-7.52;58.71;102478.02;107545;1247;73143;-71
2022/03/11 02:17:38;;;;;;;11.30;5.10;;;;;;;-7.49;58.63;102481.83;107402;1248;69106;-70
2022/03/11 02:20:08;;;;;;;8.10;4.30;;;;;;;-7.51;58.58;102484.48;107409;1247;71588;-70
2022/03/11 02:22:40;;;;;;;10.00;4.60;;;;;;;-7.50;58.71;102484.52;107603;1247;61496;-70
2022/03/11 02:25:09;;;;;;;8.50;4.00;;;;;;;-7.51;58.65;102484.14;107530;1247;60287;-71
2022/03/11 02:27:42;;;;;;;10.90;4.90;;;;;;;-7.52;58.50;102482.24;107404;1250;73911;-69
2022/03/11 02:30:21;;;;;;;6.10;3.50;;;;;;;-7.55;58.49;102478.10;107509;1247;70309;-68
2022/03/11 02:32:50;;;;;;;8.80;4.30;;;;;;;-7.58;58.18;102471.05;107344;1249;69640;-70
2022/03/11 02:35:20;;;;;;;10.60;4.70;;;;;;;-7.55;58.10;102473.34;107444;1247;71958;-70
2022/03/11 02:37:49;;;;;;;8.50;4.20;;;;;;;-7.60;58.23;102472.70;107457;1247;61089;-71
2022/03/11 02:40:18;;;;;;;8.20;4.40;;;;;;;-7.67;58.39;102472.83;107480;1247;58944;-71
2022/03/11 02:42:47;;;;;;;7.70;4.50;;;;;;;-7.68;58.36;102469.39;107477;1247;71996;-72
2022/03/11 02:45:16;;;;;;;9.20;4.70;;;;;;;-7.70;58.63;102471.53;107568;1247;72499;-72
2022/03/11 02:47:44;;;;;;;7.30;4.20;;;;;;;-7.77;58.55;102473.19;107311;1248;71199;-72
2022/03/11 02:50:13;;;;;;;9.90;4.00;;;;;;;-7.83;58.87;102474.36;107454;1247;74197;-69
2022/03/11 02:52:42;;;;;;;9.20;4.00;;;;;;;-7.83;58.83;102471.14;107423;1247;61414;-71
2022/03/11 02:55:11;;;;;;;7.80;4.00;;;;;;;-7.85;58.90;102470.91;107459;1247;59068;-70
2022/03/11 02:57:40;;;;;;;4.70;2.90;;;;;;;-7.89;59.02;102470.60;107470;1247;71062;-72
2022/03/11 03:00:10;;;;;;;7.10;4.10;;;;;;;-7.92;59.03;102463.60;107410;1247;69678;-69
2022/03/11 03:02:39;;;;;;;6.90;3.90;;;;;;;-7.93;59.08;102462.54;107410;1247;72345;-68
2022/03/11 03:05:08;;;;;;;8.90;3.00;;;;;;;-7.97;59.28;102464.25;107504;1247;74255;-69
2022/03/11 03:07:37;;;;;;;7.60;4.20;;;;;;;-7.97;58.94;102461.73;107462;1247;61812;-70
2022/03/11 03:10:08;;;;;;;9.20;4.60;;;;;;;-7.98;59.04;102463.05;107468;1247;61137;-71
2022/03/11 03:12:38;;;;;;;4.30;3.00;;;;;;;-8.02;59.25;102472.25;107344;1248;75631;-70
2022/03/11 03:15:08;;;;;;;5.50;3.00;;;;;;;-8.07;59.42;102469.71;107470;1247;74367;-70
2022/03/11 03:17:37;;;;;;;8.10;4.00;;;;;;;-8.02;59.21;102472.56;107433;1247;68472;-69
2022/03/11 03:20:08;;;;;;;9.10;5.40;;;;;;;-7.99;58.89;102474.20;107477;1247;72735;-70
2022/03/11 03:22:37;;;;;;;8.50;4.20;;;;;;;-7.97;58.50;102472.73;107360;1247;63071;-70
2022/03/11 03:25:09;;;;;;;7.50;3.50;;;;;;;-8.01;58.75;102471.94;107316;1248;59478;-69
2022/03/11 03:27:38;;;;;;;7.50;4.00;;;;;;;-8.01;58.71;102474.45;107441;1247;74598;-72
2022/03/11 03:30:08;;;;;;;7.80;4.10;;;;;;;-8.06;58.78;102472.10;107459;1247;73619;-72
2022/03/11 03:32:43;;;;;;;6.10;3.30;;;;;;;-8.02;58.45;102471.73;107226;1249;70640;-72
2022/03/11 03:35:12;;;;;;;10.20;4.40;;;;;;;-8.04;58.39;102468.81;107365;1247;74379;-70
2022/03/11 03:37:42;;;;;;;7.00;3.40;;;;;;;-8.04;59.35;102465.91;107400;1247;60024;-71
2022/03/11 03:40:11;;;;;;;7.60;4.00;;;;;;;-8.08;58.82;102466.30;107483;1247;61235;-70
2022/03/11 03:42:46;;;;;;;6.50;3.60;;;;;;;-8.09;58.67;102471.17;107505;1247;71693;-70
2022/03/11 03:45:16;;;;;;;8.10;4.20;;;;;;;-8.09;58.44;102474.21;107476;1247;69575;-70
2022/03/11 03:47:44;;;;;;;8.10;3.60;;;;;;;-8.10;58.30;102475.70;107541;1247;69750;-74
2022/03/11 03:50:14;;;;;;;9.60;3.40;;;;;;;-8.11;58.52;102476.20;107442;1248;74904;-72
2022/03/11 03:52:44;;;;;;;10.80;4.50;;;;;;;-8.14;58.54;102480.48;107443;1247;64267;-73
2022/03/11 03:55:13;;;;;;;7.70;3.30;;;;;;;-8.17;58.64;102477.33;107469;1247;61357;-76
2022/03/11 03:57:42;;;;;;;8.40;4.20;;;;;;;-8.19;58.55;102480.83;107494;1247;74504;-73
2022/03/11 04:00:12;;;;;;;5.00;2.80;;;;;;;-8.21;58.95;102480.91;107484;1247;72631;-74
2022/03/11 04:02:49;;;;;;;6.30;3.70;;;;;;;-8.23;58.52;102482.18;107090;1249;71770;-73
2022/03/11 04:05:19;;;;;;;9.90;4.50;;;;;;;-8.25;58.83;102482.48;107110;1249;74223;-75
2022/03/11 04:07:48;;;;;;;5.30;3.10;;;;;;;-8.29;58.97;102483.03;107138;1249;60872;-74
2022/03/11 04:10:18;;;;;;;7.90;4.20;;;;;;;-8.27;58.72;102480.21;107311;1250;60182;-74
2022/03/11 04:12:47;;;;;;;8.00;4.00;;;;;;;-8.27;58.96;102479.38;107358;1249;70705;-74
2022/03/11 04:15:16;;;;;;;6.70;3.40;;;;;;;-8.28;58.92;102484.91;107286;1251;69735;-74
2022/03/11 04:17:45;;;;;;;7.10;4.20;;;;;;;-8.30;59.01;102485.52;107312;1249;72162;-75
2022/03/11 04:20:14;;;;;;;7.70;3.70;;;;;;;-8.32;59.18;102486.98;107451;1249;74865;-74
2022/03/11 04:22:45;;;;;;;8.90;3.60;;;;;;;-8.33;58.88;102489.84;107316;1249;61874;-75
2022/03/11 04:25:15;;;;;;;7.00;4.00;;;;;;;-8.36;59.03;102489.23;107162;1248;61659;-75
2022/03/11 04:27:44;;;;;;;5.40;3.30;;;;;;;-8.39;58.94;102486.79;107086;1249;74238;-75
2022/03/11 04:30:15;;;;;;;6.30;3.20;;;;;;;-8.39;59.11;102487.28;107115;1249;71089;-74
2022/03/11 04:32:44;;;;;;;5.00;3.00;;;;;;;-8.41;59.17;102488.92;107146;1249;69688;-73
2022/03/11 04:35:13;;;;;;;8.10;4.00;;;;;;;-8.40;59.16;102488.44;107375;1246;73337;-74
2022/03/11 04:37:42;;;;;;;8.80;4.10;;;;;;;-8.38;58.96;102494.10;107400;1246;61596;-70
2022/03/11 04:40:11;;;;;;;8.70;4.10;;;;;;;-8.38;58.87;102486.48;107322;1246;60952;-71
2022/03/11 04:42:40;;;;;;;3.20;1.90;;;;;;;-8.38;59.06;102492.40;107350;1247;72462;-72
2022/03/11 04:45:10;;;;;;;6.30;3.30;;;;;;;-8.37;58.78;102493.27;107322;1247;71355;-74
2022/03/11 04:47:40;;;;;;;6.40;3.40;;;;;;;-8.35;58.69;102490.59;107335;1246;71459;-74
2022/03/11 04:50:09;;;;;;;6.10;2.70;;;;;;;-8.33;58.43;102493.38;107436;1246;74266;-74
2022/03/11 04:52:38;;;;;;;6.40;3.80;;;;;;;-8.32;58.28;102492.73;107497;1246;60289;-74
2022/03/11 04:55:08;;;;;;;8.70;3.80;;;;;;;-8.29;58.38;102497.89;107430;1246;60114;-74
2022/03/11 04:57:36;;;;;;;8.50;4.00;;;;;;;-8.26;58.29;102495.81;107598;1246;74602;-72
2022/03/11 05:00:07;;;;;;;8.00;3.90;;;;;;;-8.22;59.01;102496.61;107623;1246;73247;-75
2022/03/11 05:02:36;;;;;;;5.80;3.30;;;;;;;-8.10;60.84;102491.27;107417;1246;70466;-73
2022/03/11 05:05:07;;;;;;;5.90;4.00;;;;;;;-7.94;60.52;102492.62;107379;1246;74742;-74
2022/03/11 05:07:35;;;;;;;7.80;3.70;;;;;;;-7.82;59.47;102494.52;107464;1246;63142;-73
2022/03/11 05:10:11;;;;;;;6.10;3.00;;;;;;;-7.78;58.54;102496.33;107428;1246;61180;-74
2022/03/11 05:12:41;;;;;;;9.10;4.00;;;;;;;-7.69;57.96;102494.41;107524;1246;73946;-73
2022/03/11 05:15:11;;;;;;;4.80;3.30;;;;;;;-7.65;58.13;102496.08;107346;1247;71714;-74
2022/03/11 05:17:41;;;;;;;8.30;3.80;;;;;;;-7.66;56.97;102495.70;107614;1246;68745;-73
2022/03/11 05:20:11;;;;;;;5.40;2.30;;;;;;;-7.70;56.51;102498.79;107548;1246;74281;-73
2022/03/11 05:22:42;;;;;;;6.30;3.50;;;;;;;-7.67;56.83;102495.98;107626;1246;61878;-73
2022/03/11 05:25:11;;;;;;;4.60;3.00;;;;;;;-7.61;56.91;102494.64;107624;1246;62191;-74
2022/03/11 05:27:40;;;;;;;4.90;2.80;;;;;;;-7.50;57.14;102495.87;107628;1246;72725;-75
2022/03/11 05:30:10;;;;;;;10.10;4.20;;;;;;;-7.41;55.89;102496.27;107468;1247;70440;-74
2022/03/11 05:32:47;;;;;;;6.60;3.00;;;;;;;-7.35;56.24;102496.80;107569;1246;70616;-75
2022/03/11 05:35:16;;;;;;;10.60;5.30;;;;;;;-7.31;55.58;102497.26;107583;1246;73849;-74
2022/03/11 05:37:47;;;;;;;6.70;3.70;;;;;;;-7.38;55.70;102491.63;107785;1245;61956;-73
2022/03/11 05:40:16;;;;;;;8.90;3.80;;;;;;;-7.34;55.96;102489.21;107669;1246;61043;-73
2022/03/11 05:42:45;;;;;;;7.00;3.50;;;;;;;-7.30;56.13;102492.04;107680;1246;72363;-73
2022/03/11 05:45:14;;;;;;;9.60;4.20;;;;;;;-7.33;56.11;102500.23;107585;1246;70116;-74
2022/03/11 05:47:44;;;;;;;14.70;5.50;;;;;;;-7.25;56.71;102500.33;107596;1245;68731;-73
2022/03/11 05:50:13;;;;;;;9.20;4.00;;;;;;;-7.18;56.93;102503.20;107653;1246;73120;-75
2022/03/11 05:52:42;;;;;;;10.20;4.10;;;;;;;-7.15;56.26;102500.42;107644;1246;61200;-76
2022/03/11 05:55:13;;;;;;;12.40;5.40;;;;;;;-7.18;56.66;102497.80;107572;1246;60321;-74
2022/03/11 05:57:42;;;;;;;9.90;5.30;;;;;;;-7.07;56.38;102495.57;107515;1246;70845;-73
2022/03/11 06:00:12;;;;;;;10.80;5.10;;;;;;;-7.07;56.75;102493.73;107590;1246;69566;-73
2022/03/11 06:02:41;;;;;;;7.60;3.30;;;;;;;-7.07;56.33;102490.49;107631;1246;70196;-75
2022/03/11 06:05:10;;;;;;;5.30;3.10;;;;;;;-7.01;56.89;102488.48;107674;1246;71676;-75
2022/03/11 06:07:40;;;;;;;11.20;5.30;;;;;;;-6.87;56.83;102492.08;107595;1246;59054;-74
2022/03/11 06:10:09;;;;;;;6.80;2.30;;;;;;;-6.75;56.52;102490.52;107619;1246;59761;-75
2022/03/11 06:12:38;;;;;;;9.00;3.70;;;;;;;-6.74;55.86;102488.70;107404;1246;72534;-76
2022/03/11 06:15:11;;;;;;;10.50;4.50;;;;;;;-6.72;55.92;102492.66;107370;1246;69865;-75
2022/03/11 06:17:41;;;;;;;7.10;4.30;;;;;;;-6.62;55.14;102494.61;107013;1246;611137;-74
2022/03/11 06:20:13;;;;;;;8.50;3.10;;;;;;;-6.54;55.19;102496.71;107567;1246;73908;-74
2022/03/11 06:22:50;;;;;;;7.20;3.60;;;;;;;-6.41;55.36;102494.83;107253;1245;62559;-74
2022/03/11 06:25:20;;;;;;;10.00;3.40;;;;;;;-6.36;54.85;102497.50;107547;1246;60385;-75
2022/03/11 06:27:49;;;;;;;18.70;3.50;;;;;;;-6.32;54.56;102492.02;107559;1246;73691;-74
2022/03/11 06:30:18;;;;;;;8.40;4.50;;;;;;;-6.33;53.88;102489.27;107671;1246;71792;-75
2022/03/11 06:32:50;;;;;;;6.80;3.40;;;;;;;-6.31;53.37;102493.07;107569;1246;68681;-75
2022/03/11 06:35:19;;;;;;;5.30;3.10;;;;;;;-6.24;52.96;102483.39;107632;1246;72916;-80
2022/03/11 06:37:52;;;;;;;13.00;6.10;;;;;;;-6.20;52.94;102482.98;107721;1246;61165;-75
2022/03/11 06:40:22;;;;;;;10.40;3.10;;;;;;;-6.11;53.45;102483.55;107701;1246;62137;-74
2022/03/11 06:42:53;;;;;;;5.00;3.00;;;;;;;-5.89;52.76;102479.32;107428;1247;73122;-70
2022/03/11 06:45:22;;;;;;;7.90;4.00;;;;;;;-5.84;51.68;102476.70;107711;1246;68809;-73
2022/03/11 06:47:52;;;;;;;9.00;4.70;;;;;;;-5.64;50.82;102474.95;107530;1244;69779;-71
2022/03/11 06:50:21;;;;;;;5.70;3.90;;;;;;;-5.52;49.46;102469.95;107599;1246;74659;-70
2022/03/11 06:52:50;;;;;;;7.70;3.30;;;;;;;-5.57;47.98;102475.44;107583;1245;61256;-71
2022/03/11 06:55:19;;;;;;;7.80;4.10;;;;;;;-5.64;48.47;102472.22;107488;1246;60168;-70
2022/03/11 06:57:48;;;;;;;5.30;3.20;;;;;;;-5.45;48.26;102473.34;107473;1246;72048;-71
2022/03/11 07:00:18;;;;;;;7.90;4.10;;;;;;;-5.38;47.68;102467.20;107453;1246;72089;-71
2022/03/11 07:02:47;;;;;;;7.30;4.30;;;;;;;-5.35;47.30;102459.45;107413;1246;69846;-71
2022/03/11 07:05:16;;;;;;;5.20;3.30;;;;;;;-5.55;46.60;102468.19;107271;1247;71991;-72
2022/03/11 07:07:46;;;;;;;7.00;3.90;;;;;;;-5.51;46.64;102460.80;107243;1248;59998;-73
2022/03/11 07:10:18;;;;;;;11.80;4.30;;;;;;;-5.44;46.51;102457.20;107476;1246;59833;-71
2022/03/11 07:12:47;;;;;;;5.40;3.20;;;;;;;-5.59;46.58;102460.28;107649;1246;72858;-74
2022/03/11 07:15:16;;;;;;;7.70;4.30;;;;;;;-5.42;47.40;102448.26;107561;1246;73692;-71
2022/03/11 07:17:46;;;;;;;5.80;3.40;;;;;;;-5.47;46.84;102450.38;107391;1245;71122;-74
2022/03/11 07:20:15;;;;;;;6.50;3.50;;;;;;;-5.29;46.08;102442.25;107444;1246;73513;-74
2022/03/11 07:22:47;;;;;;;7.10;3.30;;;;;;;-5.26;45.77;102437.04;107756;1246;63011;-78
2022/03/11 07:25:19;;;;;;;6.70;3.00;;;;;;;-5.30;45.53;102434.25;107695;1246;59517;-72
2022/03/11 07:27:48;;;;;;;8.60;4.00;;;;;;;-5.22;45.45;102433.39;107503;1246;74601;-76
2022/03/11 07:30:18;;;;;;;6.70;3.40;;;;;;;-5.19;45.57;102426.48;107615;1246;71461;-74
2022/03/11 07:32:47;;;;;;;5.60;3.50;;;;;;;-5.18;44.77;102442.80;107588;1245;70340;-73
2022/03/11 07:35:16;;;;;;;5.90;3.40;;;;;;;-4.99;44.79;102433.83;107281;1246;74280;-72
2022/03/11 07:37:45;;;;;;;6.20;3.40;;;;;;;-4.86;43.96;102425.41;107367;1246;59349;-74
2022/03/11 07:40:14;;;;;;;9.30;4.30;;;;;;;-4.87;43.88;102426.58;107480;1247;59758;-74
2022/03/11 07:42:44;;;;;;;7.60;3.90;;;;;;;-4.76;43.77;102420.85;107572;1246;71687;-73
2022/03/11 07:45:14;;;;;;;7.40;3.30;;;;;;;-4.58;43.61;102425.23;107437;1246;70497;-73
2022/03/11 07:47:44;;;;;;;5.90;2.90;;;;;;;-4.71;42.52;102416.84;107474;1246;68970;-71
2022/03/11 07:50:14;;;;;;;8.70;3.60;;;;;;;-4.66;42.20;102416.61;107405;1246;74509;-73
2022/03/11 07:52:43;;;;;;;6.00;3.40;;;;;;;-4.58;42.26;102410.28;107184;1246;59364;-73
2022/03/11 07:55:13;;;;;;;5.90;2.60;;;;;;;-4.44;41.84;102408.13;107200;1246;58939;-73
2022/03/11 07:57:42;;;;;;;5.80;3.10;;;;;;;-4.33;41.82;102403.38;107309;1246;74660;-72
2022/03/11 08:00:13;;;;;;;6.30;3.30;;;;;;;-4.15;41.67;102392.93;107297;1246;72926;-70
2022/03/11 08:02:43;;;;;;;7.00;3.10;;;;;;;-4.13;40.85;102388.36;107298;1246;71256;-71
2022/03/11 08:05:14;;;;;;;5.80;3.10;;;;;;;-4.04;40.71;102390.05;107395;1246;71698;-71
2022/03/11 08:07:46;;;;;;;;;;;;;;;-4.05;40.23;102386.45;107625;1246;58945;-72
2022/03/11 08:10:19;;;;;;;4.40;2.30;;;;;;;-4.09;40.04;102379.75;107524;1246;59042;-74
2022/03/11 08:12:50;;;;;;;8.70;3.10;;;;;;;-3.92;40.37;102385.11;107384;1246;70916;-71
2022/03/11 08:15:19;;;;;;;5.00;2.30;;;;;;;-3.90;40.13;102384.61;107432;1246;68573;-71
2022/03/11 08:17:48;;;;;;;6.60;3.00;;;;;;;-3.93;39.64;102378.63;107289;1246;69793;-72
2022/03/11 08:20:19;;;;;;;5.80;2.80;;;;;;;-3.97;39.68;102377.55;107466;1246;74569;-72
2022/03/11 08:22:50;;;;;;;5.90;2.70;;;;;;;-3.91;39.58;102373.89;107416;1246;61923;-77
2022/03/11 08:25:20;;;;;;;6.40;3.20;;;;;;;-3.92;38.66;102381.54;107595;1246;60195;-73
2022/03/11 08:27:49;;;;;;;7.70;3.00;;;;;;;-4.04;38.83;102381.19;107399;1246;72276;-73
2022/03/11 08:30:18;;;;;;;8.40;3.10;;;;;;;-3.86;38.92;102382.80;107369;1246;70756;-74
2022/03/11 08:32:48;;;;;;;6.70;2.60;;;;;;;-3.73;38.67;102372.26;107377;1246;67128;-73
2022/03/11 08:35:19;;;;;;;6.60;3.00;;;;;;;-3.76;39.17;102378.67;107810;1246;70182;-73
2022/03/11 08:37:48;;;;;;;5.40;3.10;;;;;;;-3.61;39.26;102376.16;107459;1246;61518;-73
2022/03/11 08:40:23;;;;;;;5.30;2.60;;;;;;;-3.50;38.78;102372.03;107347;1246;59445;-71
2022/03/11 08:42:53;;;;;;;5.20;2.30;;;;;;;-3.31;38.01;102368.00;107304;1246;72731;-71
2022/03/11 08:45:22;;;;;;;8.50;3.80;;;;;;;-3.31;38.31;102366.13;107420;1246;71775;-73
2022/03/11 08:47:53;;;;;;;4.60;2.80;;;;;;;-3.25;37.59;102374.38;108111;1246;71612;-72
2022/03/11 08:50:22;;;;;;;5.00;2.80;;;;;;;-3.13;36.82;102366.48;107587;1245;71606;-72
2022/03/11 08:52:52;;;;;;;4.80;2.90;;;;;;;-3.21;37.02;102368.80;107397;1246;61255;-73
2022/03/11 08:55:21;;;;;;;6.20;3.30;;;;;;;-3.04;36.50;102354.66;107480;1246;60277;-71
2022/03/11 08:57:51;;;;;;;4.60;3.00;;;;;;;-3.05;37.14;102345.79;107407;1246;71300;-71
2022/03/11 09:00:23;;;;;;;6.90;2.90;;;;;;;-2.75;36.27;102334.30;107423;1245;70383;-71
2022/03/11 09:02:52;;;;;;;4.60;2.30;;;;;;;-2.68;35.32;102344.77;107463;1246;70544;-73
2022/03/11 09:05:21;;;;;;;6.00;2.70;;;;;;;-2.80;35.74;102336.64;107463;1246;71403;-71
2022/03/11 09:07:51;;;;;;;6.20;3.10;;;;;;;-2.70;35.85;102335.70;107317;1249;58753;-70
2022/03/11 09:10:20;;;;;;;4.00;2.60;;;;;;;-2.66;35.67;102337.95;107593;1246;61879;-71
2022/03/11 09:12:49;;;;;;;4.30;2.40;;;;;;;-2.48;35.27;102343.71;107576;1246;72681;-70
2022/03/11 09:15:18;;;;;;;7.50;3.30;;;;;;;-2.53;34.22;102338.90;107370;1246;70281;-72
2022/03/11 09:17:48;;;;;;;4.20;2.40;;;;;;;-2.76;34.30;102334.45;107469;1246;68730;-70
2022/03/11 09:20:17;;;;;;;6.70;2.80;;;;;;;-2.46;34.37;102326.34;107624;1246;72009;-72
2022/03/11 09:22:58;;;;;;;3.40;2.30;;;;;;;-2.33;34.02;102318.91;107535;1246;60177;-71
2022/03/11 09:25:27;;;;;;;5.30;2.60;;;;;;;-2.19;33.72;102323.43;107565;1246;59740;-73
2022/03/11 09:27:56;;;;;;;5.60;2.90;;;;;;;-2.22;33.60;102320.35;107555;1246;73916;-72
2022/03/11 09:30:26;;;;;;;4.30;2.40;;;;;;;-2.16;33.20;102323.13;107546;1246;72566;-73
2022/03/11 09:32:55;;;;;;;7.80;2.50;;;;;;;-2.02;32.51;102314.83;107410;1247;69096;-72
2022/03/11 09:35:24;;;;;;;4.40;2.60;;;;;;;-2.20;32.68;102312.16;107562;1246;72349;-72
2022/03/11 09:37:53;;;;;;;4.80;2.10;;;;;;;-1.99;33.06;102309.04;107437;1246;60888;-71
2022/03/11 09:40:22;;;;;;;4.50;2.70;;;;;;;-1.89;32.85;102303.96;107344;1248;58998;-73
2022/03/11 09:42:52;;;;;;;3.00;1.80;;;;;;;-1.64;33.11;102301.50;107474;1246;73834;-72
2022/03/11 09:45:23;;;;;;;4.10;2.40;;;;;;;-1.50;31.55;102298.98;107356;1246;72451;-71
2022/03/11 09:47:53;;;;;;;3.20;2.30;;;;;;;-1.74;31.45;102305.05;107363;1245;71326;-72
2022/03/11 09:50:29;;;;;;;7.30;3.20;;;;;;;-1.62;31.68;102298.43;107289;1246;74811;-73
2022/03/11 09:52:59;;;;;;;5.70;3.10;;;;;;;-1.48;31.62;102297.27;107314;1246;61788;-73
2022/03/11 09:55:28;;;;;;;4.40;2.40;;;;;;;-1.29;31.09;102299.38;107441;1246;62231;-72
2022/03/11 09:57:56;;;;;;;3.90;2.50;;;;;;;-1.16;30.29;102307.09;107255;1245;73748;-71
2022/03/11 10:00:26;;;;;;;5.50;2.80;;;;;;;-1.22;29.40;102300.41;107413;1246;73447;-72
2022/03/11 10:02:57;;;;;;;3.20;1.90;;;;;;;-1.55;29.54;102291.11;107419;1246;69250;-73
2022/03/11 10:05:47;;;;;;;3.40;1.70;;;;;;;-1.56;29.97;102282.73;107206;1246;74288;-73
2022/03/11 10:08:39;;;;;;;4.60;2.40;;;;;;;-1.37;29.94;102282.42;107260;1247;59734;-73
2022/03/11 10:11:24;;;;;;;3.00;2.00;;;;;;;-1.15;29.90;102283.67;107230;1245;59064;-72
2022/03/11 10:14:04;;;;;;;4.20;2.10;;;;;;;-1.23;29.87;102282.98;107417;1246;71657;-73
2022/03/11 10:16:35;;;;;;;5.40;2.30;;;;;;;-1.20;30.30;102281.10;107380;1246;70405;-76
2022/03/11 10:19:08;;;;;;;4.60;2.20;;;;;;;-1.26;30.20;102286.22;107317;1246;67911;-74
2022/03/11 10:21:40;;;;;;;7.50;3.10;;;;;;;-1.24;29.65;102301.78;107322;1246;72917;-74
2022/03/11 10:24:18;;;;;;;6.40;2.60;;;;;;;-1.42;30.66;102288.74;107036;1246;59897;-72
2022/03/11 10:26:58;;;;;;;4.40;2.60;;;;;;;-1.59;30.95;102307.67;107212;1246;61442;-71
2022/03/11 10:29:34;;;;;;;3.30;2.00;;;;;;;-1.79;31.84;102294.45;107419;1246;74184;-73
2022/03/11 10:32:07;;;;;;;7.20;3.00;;;;;;;-1.74;32.03;102287.80;107296;1246;71148;-73
2022/03/11 10:34:37;;;;;;;;;;;;;;;-1.60;31.94;102289.56;107382;1246;71586;-71
2022/03/11 10:37:12;;;;;;;3.90;2.30;;;;;;;-1.47;32.08;102292.32;107283;1247;74678;-72
2022/03/11 10:39:47;;;;;;;6.00;2.70;;;;;;;-1.63;31.74;102279.30;107116;1247;59407;-73
2022/03/11 10:42:27;;;;;;;4.80;2.50;;;;;;;-1.33;31.92;102283.13;107499;1246;59563;-72
2022/03/11 10:45:00;;;;;;;5.00;2.60;;;;;;;-1.42;31.33;102300.89;107181;1246;71535;-72
2022/03/11 10:47:34;;;;;;;5.00;2.20;;;;;;;-1.23;31.55;102292.56;107489;1246;72345;-72
2022/03/11 10:50:13;;;;;;;7.30;2.60;;;;;;;-1.31;31.49;102285.02;107338;1246;70409;-70
2022/03/11 10:52:46;;;;;;;4.20;2.50;;;;;;;-1.21;30.73;102271.19;107153;1247;71226;-71
2022/03/11 10:55:23;;;;;;;5.80;2.80;;;;;;;-1.39;30.73;102275.94;107264;1246;60902;-71
2022/03/11 10:57:55;;;;;;;5.80;2.10;;;;;;;-1.09;31.03;102276.85;107317;1246;61758;-72
2022/03/11 11:00:30;;;;;;;3.50;2.00;;;;;;;-1.30;30.79;102278.52;107312;1246;74037;-72
2022/03/11 11:03:05;;;;;;;4.10;2.30;;;;;;;-1.28;30.80;102279.72;107319;1246;71911;-74
2022/03/11 11:05:36;;;;;;;5.00;2.20;;;;;;;-1.14;31.00;102270.69;107365;1246;67995;-73
2022/03/11 11:08:06;;;;;;;4.00;1.90;;;;;;;-1.17;30.98;102295.13;107309;1246;74245;-73
2022/03/11 11:10:39;;;;;;;3.80;2.30;;;;;;;-1.26;32.59;102297.33;107334;1246;59035;-71
2022/03/11 11:13:09;;;;;;;3.60;2.30;;;;;;;-1.40;33.42;102282.94;107364;1246;59019;-73
2022/03/11 11:15:40;;;;;;;6.30;3.10;;;;;;;-1.36;32.61;102269.27;107281;1246;71617;-70
2022/03/11 11:18:14;;;;;;;5.60;2.50;;;;;;;-1.20;32.43;102262.30;107384;1246;70357;-72
2022/03/11 11:20:50;;;;;;;3.30;1.90;;;;;;;-1.02;31.93;102278.71;107441;1246;70988;-72
2022/03/11 11:23:24;;;;;;;4.50;2.40;;;;;;;-1.04;32.53;102270.69;107250;1246;73622;-71
2022/03/11 11:25:54;;;;;;;3.80;2.00;;;;;;;-1.04;32.51;102258.55;107298;1245;59013;-73
2022/03/11 11:28:28;;;;;;;3.10;2.10;;;;;;;-1.09;31.59;102265.73;107301;1247;59767;-74
2022/03/11 11:30:59;;;;;;;2.60;1.80;;;;;;;-1.36;31.85;102260.40;107329;1246;72993;-72